createdAt,value
2022-09-25T00:00:03.258Z,99.19
2022-09-25T00:00:23.309Z,99.19
2022-09-25T00:00:43.407Z,99.2
2022-09-25T00:01:03.566Z,99.18
2022-09-25T00:01:23.597Z,99.18
2022-09-25T00:01:43.706Z,99.17
2022-09-25T00:02:03.887Z,99.17
2022-09-25T00:02:23.860Z,99.17
2022-09-25T00:02:43.965Z,99.13
2022-09-25T00:03:03.986Z,99.16
2022-09-25T00:03:23.953Z,99.14
2022-09-25T00:03:44.007Z,99.14
2022-09-25T00:04:04.195Z,99.13
2022-09-25T00:04:24.111Z,99.15
2022-09-25T00:04:44.198Z,99.11
2022-09-25T00:05:04.328Z,99.13
2022-09-25T00:05:24.330Z,99.08
2022-09-25T00:05:44.380Z,99.09
2022-09-25T00:06:04.472Z,99.08
2022-09-25T00:06:24.535Z,99.09
2022-09-25T00:06:44.609Z,99.1
2022-09-25T00:07:04.661Z,99.08
2022-09-25T00:07:24.710Z,99.04
2022-09-25T00:07:44.756Z,99.06
2022-09-25T00:08:04.820Z,99.05
2022-09-25T00:08:24.855Z,99.05
2022-09-25T00:08:44.896Z,99.02
2022-09-25T00:09:09.025Z,99.02
2022-09-25T00:09:25.023Z,99.01
2022-09-25T00:09:45.096Z,99
2022-09-25T00:10:05.176Z,98.99
2022-09-25T00:10:25.261Z,98.96
2022-09-25T00:10:45.300Z,98.99
2022-09-25T00:11:05.375Z,98.98
2022-09-25T00:11:25.466Z,98.99
2022-09-25T00:11:45.544Z,98.98
2022-09-25T00:12:05.597Z,98.96
2022-09-25T00:12:25.663Z,99.01
2022-09-25T00:12:45.736Z,98.96
2022-09-25T00:13:05.769Z,98.95
2022-09-25T00:13:25.855Z,98.95
2022-09-25T00:13:45.915Z,98.99
2022-09-25T00:14:05.977Z,98.99
2022-09-25T00:14:26.003Z,99.01
2022-09-25T00:14:46.081Z,99.03
2022-09-25T00:15:06.145Z,98.99
2022-09-25T00:15:26.182Z,98.99
2022-09-25T00:15:46.258Z,99
2022-09-25T00:16:06.317Z,98.99
2022-09-25T00:16:26.464Z,99.02
2022-09-25T00:16:46.552Z,99
2022-09-25T00:17:06.566Z,98.99
2022-09-25T00:17:26.551Z,99
2022-09-25T00:17:46.626Z,99.03
2022-09-25T00:18:06.695Z,99.02
2022-09-25T00:18:26.756Z,99.01
2022-09-25T00:18:46.838Z,99
2022-09-25T00:19:06.875Z,98.98
2022-09-25T00:19:26.923Z,99
2022-09-25T00:19:47.017Z,99.04
2022-09-25T00:20:07.031Z,99.03
2022-09-25T00:20:27.111Z,99.01
2022-09-25T00:20:47.173Z,99
2022-09-25T00:21:07.257Z,99.01
2022-09-25T00:21:27.346Z,99.01
2022-09-25T00:21:47.409Z,99.01
2022-09-25T00:22:07.476Z,99.01
2022-09-25T00:22:27.522Z,99.03
2022-09-25T00:22:47.578Z,99
2022-09-25T00:23:07.635Z,99
2022-09-25T00:23:27.691Z,98.99
2022-09-25T00:23:47.742Z,98.99
2022-09-25T00:24:07.838Z,99.04
2022-09-25T00:24:27.919Z,99
2022-09-25T00:24:48.005Z,99
2022-09-25T00:25:08.064Z,99.01
2022-09-25T00:25:28.126Z,99.01
2022-09-25T00:25:48.193Z,99.02
2022-09-25T00:26:08.295Z,99
2022-09-25T00:26:28.311Z,99.01
2022-09-25T00:26:48.359Z,99.04
2022-09-25T00:27:08.459Z,99.01
2022-09-25T00:27:28.494Z,99
2022-09-25T00:27:48.565Z,98.97
2022-09-25T00:28:08.615Z,98.94
2022-09-25T00:28:28.694Z,98.96
2022-09-25T00:28:48.743Z,98.93
2022-09-25T00:29:08.816Z,98.92
2022-09-25T00:29:28.879Z,98.89
2022-09-25T00:29:48.919Z,98.9
2022-09-25T00:30:08.980Z,98.88
2022-09-25T00:30:29.083Z,98.92
2022-09-25T00:30:49.179Z,98.9
2022-09-25T00:31:09.315Z,98.85
2022-09-25T00:31:29.264Z,98.82
2022-09-25T00:31:49.315Z,98.84
2022-09-25T00:32:09.400Z,98.85
2022-09-25T00:32:29.462Z,98.81
2022-09-25T00:32:49.522Z,98.83
2022-09-25T00:33:09.607Z,98.81
2022-09-25T00:33:29.629Z,98.77
2022-09-25T00:33:49.692Z,98.8
2022-09-25T00:34:09.840Z,98.78
2022-09-25T00:34:29.843Z,98.75
2022-09-25T00:34:49.895Z,98.75
2022-09-25T00:35:09.950Z,98.69
2022-09-25T00:35:30.006Z,98.69
2022-09-25T00:35:50.078Z,98.66
2022-09-25T00:36:10.131Z,98.65
2022-09-25T00:36:30.218Z,98.63
2022-09-25T00:36:50.269Z,98.62
2022-09-25T00:37:10.342Z,98.61
2022-09-25T00:37:30.406Z,98.62
2022-09-25T00:37:50.454Z,98.61
2022-09-25T00:38:10.537Z,98.61
2022-09-25T00:38:30.562Z,98.59
2022-09-25T00:38:50.659Z,98.62
2022-09-25T00:39:10.719Z,98.61
2022-09-25T00:39:30.742Z,98.62
2022-09-25T00:39:50.818Z,98.63
2022-09-25T00:40:10.978Z,98.66
2022-09-25T00:40:30.985Z,98.61
2022-09-25T00:40:51.101Z,98.65
2022-09-25T00:41:11.092Z,98.64
2022-09-25T00:41:31.360Z,98.65
2022-09-25T00:41:51.207Z,98.63
2022-09-25T00:42:11.257Z,98.61
2022-09-25T00:42:31.323Z,98.63
2022-09-25T00:42:51.379Z,98.61
2022-09-25T00:43:11.468Z,98.63
2022-09-25T00:43:31.516Z,98.62
2022-09-25T00:43:51.549Z,98.57
2022-09-25T00:44:11.690Z,98.58
2022-09-25T00:44:31.673Z,98.55
2022-09-25T00:44:51.733Z,98.57
2022-09-25T00:45:11.812Z,98.53
2022-09-25T00:45:31.887Z,98.5
2022-09-25T00:45:51.971Z,98.49
2022-09-25T00:46:12.131Z,98.48
2022-09-25T00:46:32.160Z,98.5
2022-09-25T00:46:52.184Z,98.5
2022-09-25T00:47:12.216Z,98.47
2022-09-25T00:47:32.285Z,98.49
2022-09-25T00:47:52.339Z,98.49
2022-09-25T00:48:12.412Z,98.49
2022-09-25T00:48:32.468Z,98.46
2022-09-25T00:48:52.522Z,98.46
2022-09-25T00:49:12.571Z,98.49
2022-09-25T00:49:32.645Z,98.51
2022-09-25T00:49:52.733Z,98.51
2022-09-25T00:50:12.794Z,98.55
2022-09-25T00:50:32.851Z,98.55
2022-09-25T00:50:52.913Z,98.55
2022-09-25T00:51:12.966Z,98.61
2022-09-25T00:51:33.034Z,98.6
2022-09-25T00:51:54.964Z,98.62
2022-09-25T00:52:13.153Z,98.6
2022-09-25T00:52:33.224Z,98.61
2022-09-25T00:52:53.320Z,98.62
2022-09-25T00:53:13.405Z,98.63
2022-09-25T00:53:33.471Z,98.58
2022-09-25T00:53:53.520Z,98.6
2022-09-25T00:54:13.606Z,98.66
2022-09-25T00:54:33.663Z,98.61
2022-09-25T00:54:53.707Z,98.64
2022-09-25T00:55:13.771Z,98.65
2022-09-25T00:55:33.851Z,98.63
2022-09-25T00:55:53.912Z,98.61
2022-09-25T00:56:13.939Z,98.64
2022-09-25T00:56:33.977Z,98.62
2022-09-25T00:56:54.057Z,98.6
2022-09-25T00:57:14.127Z,98.63
2022-09-25T00:57:34.167Z,98.66
2022-09-25T00:57:54.250Z,98.63
2022-09-25T00:58:14.286Z,98.65
2022-09-25T00:58:34.363Z,98.62
2022-09-25T00:58:54.442Z,98.61
2022-09-25T00:59:14.485Z,98.61
2022-09-25T00:59:34.513Z,98.6
2022-09-25T00:59:54.561Z,98.59
2022-09-25T01:00:14.635Z,98.54
2022-09-25T01:00:34.722Z,98.6
2022-09-25T01:00:54.897Z,98.57
2022-09-25T01:01:14.944Z,98.55
2022-09-25T01:01:35.012Z,98.55
2022-09-25T01:01:55.014Z,98.48
2022-09-25T01:02:15.048Z,98.49
2022-09-25T01:02:35.212Z,98.52
2022-09-25T01:02:55.241Z,98.54
2022-09-25T01:03:15.225Z,98.51
2022-09-25T01:03:35.295Z,98.47
2022-09-25T01:03:55.364Z,98.45
2022-09-25T01:04:15.453Z,98.47
2022-09-25T01:04:35.490Z,98.45
2022-09-25T01:04:55.560Z,98.47
2022-09-25T01:05:15.599Z,98.42
2022-09-25T01:05:35.677Z,98.49
2022-09-25T01:05:55.757Z,98.45
2022-09-25T01:06:15.815Z,98.48
2022-09-25T01:06:35.885Z,98.48
2022-09-25T01:06:55.972Z,98.48
2022-09-25T01:07:16.017Z,98.5
2022-09-25T01:07:36.079Z,98.49
2022-09-25T01:07:56.152Z,98.5
2022-09-25T01:08:16.184Z,98.45
2022-09-25T01:08:36.291Z,98.43
2022-09-25T01:08:56.350Z,98.45
2022-09-25T01:09:16.399Z,98.44
2022-09-25T01:09:36.471Z,98.44
2022-09-25T01:09:56.532Z,98.39
2022-09-25T01:10:16.595Z,98.39
2022-09-25T01:10:36.647Z,98.39
2022-09-25T01:10:56.698Z,98.4
2022-09-25T01:11:16.797Z,98.39
2022-09-25T01:11:36.852Z,98.41
2022-09-25T01:11:56.890Z,98.39
2022-09-25T01:12:16.951Z,98.37
2022-09-25T01:12:37.016Z,98.37
2022-09-25T01:12:57.065Z,98.35
2022-09-25T01:13:17.124Z,98.36
2022-09-25T01:13:37.182Z,98.34
2022-09-25T01:13:57.238Z,98.37
2022-09-25T01:14:17.410Z,98.33
2022-09-25T01:14:37.407Z,98.35
2022-09-25T01:14:57.482Z,98.36
2022-09-25T01:15:17.566Z,98.39
2022-09-25T01:15:37.603Z,98.38
2022-09-25T01:15:57.680Z,98.42
2022-09-25T01:16:17.784Z,98.41
2022-09-25T01:16:37.848Z,98.43
2022-09-25T01:16:57.891Z,98.45
2022-09-25T01:17:17.915Z,98.47
2022-09-25T01:17:37.980Z,98.46
2022-09-25T01:17:58.045Z,98.47
2022-09-25T01:18:18.120Z,98.48
2022-09-25T01:18:38.151Z,98.47
2022-09-25T01:18:58.243Z,98.49
2022-09-25T01:19:18.289Z,98.5
2022-09-25T01:19:38.368Z,98.5
2022-09-25T01:19:58.421Z,98.54
2022-09-25T01:20:18.492Z,98.54
2022-09-25T01:20:38.554Z,98.54
2022-09-25T01:20:58.596Z,98.54
2022-09-25T01:21:18.671Z,98.57
2022-09-25T01:21:38.749Z,98.56
2022-09-25T01:21:58.795Z,98.59
2022-09-25T01:22:18.820Z,98.56
2022-09-25T01:22:38.894Z,98.56
2022-09-25T01:22:58.958Z,98.58
2022-09-25T01:23:18.984Z,98.59
2022-09-25T01:23:39.072Z,98.59
2022-09-25T01:23:59.138Z,98.56
2022-09-25T01:24:19.239Z,98.58
2022-09-25T01:24:41.028Z,98.62
2022-09-25T01:24:59.373Z,98.64
2022-09-25T01:25:19.430Z,98.61
2022-09-25T01:25:39.489Z,98.64
2022-09-25T01:25:59.558Z,98.62
2022-09-25T01:26:19.615Z,98.64
2022-09-25T01:26:39.685Z,98.63
2022-09-25T01:26:59.719Z,98.64
2022-09-25T01:27:19.805Z,98.65
2022-09-25T01:27:39.878Z,98.64
2022-09-25T01:27:59.918Z,98.65
2022-09-25T01:28:19.965Z,98.66
2022-09-25T01:28:39.995Z,98.7
2022-09-25T01:29:00.066Z,98.67
2022-09-25T01:29:20.135Z,98.69
2022-09-25T01:29:40.211Z,98.68
2022-09-25T01:30:00.276Z,98.69
2022-09-25T01:30:20.317Z,98.67
2022-09-25T01:30:40.493Z,98.69
2022-09-25T01:31:00.645Z,98.71
2022-09-25T01:31:20.647Z,98.69
2022-09-25T01:31:40.651Z,98.65
2022-09-25T01:32:00.723Z,98.7
2022-09-25T01:32:20.783Z,98.68
2022-09-25T01:32:40.851Z,98.67
2022-09-25T01:33:00.907Z,98.67
2022-09-25T01:33:20.968Z,98.64
2022-09-25T01:33:41.037Z,98.66
2022-09-25T01:34:01.086Z,98.61
2022-09-25T01:34:21.150Z,98.63
2022-09-25T01:34:41.187Z,98.63
2022-09-25T01:35:01.255Z,98.62
2022-09-25T01:35:21.288Z,98.63
2022-09-25T01:35:41.353Z,98.56
2022-09-25T01:36:01.423Z,98.63
2022-09-25T01:36:21.476Z,98.63
2022-09-25T01:36:41.505Z,98.59
2022-09-25T01:37:01.544Z,98.6
2022-09-25T01:37:21.597Z,98.62
2022-09-25T01:37:41.622Z,98.58
2022-09-25T01:38:01.717Z,98.59
2022-09-25T01:38:21.762Z,98.55
2022-09-25T01:38:41.843Z,98.58
2022-09-25T01:39:01.908Z,98.58
2022-09-25T01:39:21.980Z,98.61
2022-09-25T01:39:42.030Z,98.64
2022-09-25T01:40:02.138Z,98.63
2022-09-25T01:40:22.214Z,98.64
2022-09-25T01:40:42.317Z,98.66
2022-09-25T01:41:02.342Z,98.64
2022-09-25T01:41:22.404Z,98.69
2022-09-25T01:41:42.466Z,98.66
2022-09-25T01:42:02.535Z,98.69
2022-09-25T01:42:22.607Z,98.69
2022-09-25T01:42:42.684Z,98.71
2022-09-25T01:43:02.759Z,98.68
2022-09-25T01:43:22.799Z,98.7
2022-09-25T01:43:42.866Z,98.74
2022-09-25T01:44:02.960Z,98.75
2022-09-25T01:44:22.974Z,98.74
2022-09-25T01:44:43.009Z,98.75
2022-09-25T01:45:03.069Z,98.74
2022-09-25T01:45:23.144Z,98.78
2022-09-25T01:45:43.282Z,98.77
2022-09-25T01:46:03.332Z,98.8
2022-09-25T01:46:23.380Z,98.78
2022-09-25T01:46:43.360Z,98.77
2022-09-25T01:47:03.448Z,98.8
2022-09-25T01:47:23.525Z,98.84
2022-09-25T01:47:43.612Z,98.82
2022-09-25T01:48:03.701Z,98.83
2022-09-25T01:48:23.750Z,98.82
2022-09-25T01:48:43.794Z,98.83
2022-09-25T01:49:03.838Z,98.86
2022-09-25T01:49:23.917Z,98.84
2022-09-25T01:49:43.970Z,98.84
2022-09-25T01:50:04.007Z,98.84
2022-09-25T01:50:24.074Z,98.86
2022-09-25T01:50:44.166Z,98.89
2022-09-25T01:51:04.232Z,98.86
2022-09-25T01:51:24.284Z,98.88
2022-09-25T01:51:44.336Z,98.84
2022-09-25T01:52:04.415Z,98.9
2022-09-25T01:52:24.503Z,98.9
2022-09-25T01:52:44.568Z,98.88
2022-09-25T01:53:04.654Z,98.86
2022-09-25T01:53:24.708Z,98.84
2022-09-25T01:53:47.945Z,98.82
2022-09-25T01:54:04.834Z,98.86
2022-09-25T01:54:24.883Z,98.87
2022-09-25T01:54:44.932Z,98.82
2022-09-25T01:55:05.005Z,98.85
2022-09-25T01:55:25.059Z,98.88
2022-09-25T01:55:45.117Z,98.85
2022-09-25T01:56:05.185Z,98.85
2022-09-25T01:56:25.239Z,98.84
2022-09-25T01:56:45.302Z,98.89
2022-09-25T01:57:05.387Z,98.84
2022-09-25T01:57:25.428Z,98.89
2022-09-25T01:57:45.494Z,98.9
2022-09-25T01:58:05.553Z,98.89
2022-09-25T01:58:25.606Z,98.9
2022-09-25T01:58:45.725Z,98.89
2022-09-25T01:59:05.788Z,98.9
2022-09-25T01:59:25.863Z,98.88
2022-09-25T01:59:45.927Z,98.92
2022-09-25T02:00:06.053Z,98.94
2022-09-25T02:00:26.105Z,98.92
2022-09-25T02:00:46.175Z,98.93
2022-09-25T02:02:13.562Z,98.93
2022-09-25T02:02:26.541Z,99.02
2022-09-25T02:03:09.659Z,98.97
2022-09-25T02:04:01.844Z,98.98
2022-09-25T02:04:06.870Z,99
2022-09-25T02:04:26.939Z,99
2022-09-25T02:04:47.009Z,99.01
2022-09-25T02:05:07.130Z,99.01
2022-09-25T02:05:27.212Z,98.99
2022-09-25T02:05:47.308Z,99.01
2022-09-25T02:06:07.436Z,99.01
2022-09-25T02:06:27.506Z,99.01
2022-09-25T02:06:47.581Z,99.05
2022-09-25T02:07:07.658Z,99.03
2022-09-25T02:07:27.742Z,99.03
2022-09-25T02:07:47.795Z,99.05
2022-09-25T02:08:07.859Z,99.06
2022-09-25T02:08:27.910Z,99.05
2022-09-25T02:08:47.965Z,99.08
2022-09-25T02:09:08.079Z,99.06
2022-09-25T02:09:28.124Z,99.08
2022-09-25T02:09:48.170Z,99.1
2022-09-25T02:10:08.255Z,99.1
2022-09-25T02:10:28.340Z,99.09
2022-09-25T02:10:48.417Z,99.14
2022-09-25T02:11:08.481Z,99.09
2022-09-25T02:11:28.554Z,99.1
2022-09-25T02:11:48.595Z,99.13
2022-09-25T02:12:08.671Z,99.1
2022-09-25T02:12:28.740Z,99.13
2022-09-25T02:12:48.801Z,99.13
2022-09-25T02:13:08.869Z,99.11
2022-09-25T02:13:28.930Z,99.12
2022-09-25T02:13:49.022Z,99.13
2022-09-25T02:14:09.080Z,99.14
2022-09-25T02:14:29.148Z,99.16
2022-09-25T02:14:49.212Z,99.13
2022-09-25T02:15:09.284Z,99.15
2022-09-25T02:15:29.346Z,99.14
2022-09-25T02:15:49.445Z,99.17
2022-09-25T02:16:09.631Z,99.16
2022-09-25T02:16:29.725Z,99.12
2022-09-25T02:16:49.751Z,99.16
2022-09-25T02:17:09.748Z,99.16
2022-09-25T02:17:29.793Z,99.15
2022-09-25T02:17:49.866Z,99.14
2022-09-25T02:18:09.963Z,99.19
2022-09-25T02:18:30.010Z,99.14
2022-09-25T02:18:50.061Z,99.18
2022-09-25T02:19:10.102Z,99.16
2022-09-25T02:19:30.164Z,99.18
2022-09-25T02:19:50.221Z,99.16
2022-09-25T02:20:10.275Z,99.17
2022-09-25T02:20:30.340Z,99.19
2022-09-25T02:20:50.395Z,99.17
2022-09-25T02:21:10.444Z,99.13
2022-09-25T02:21:30.519Z,99.13
2022-09-25T02:21:50.599Z,99.18
2022-09-25T02:22:10.665Z,99.18
2022-09-25T02:22:30.735Z,99.18
2022-09-25T02:22:50.787Z,99.16
2022-09-25T02:23:10.853Z,99.16
2022-09-25T02:23:30.933Z,99.18
2022-09-25T02:23:50.993Z,99.18
2022-09-25T02:24:11.191Z,99.18
2022-09-25T02:24:31.080Z,99.13
2022-09-25T02:24:55.236Z,99.18
2022-09-25T02:25:11.203Z,99.16
2022-09-25T02:25:31.300Z,99.18
2022-09-25T02:25:51.373Z,99.17
2022-09-25T02:26:11.430Z,99.17
2022-09-25T02:26:31.486Z,99.2
2022-09-25T02:26:51.581Z,99.17
2022-09-25T02:27:11.663Z,99.17
2022-09-25T02:27:31.697Z,99.15
2022-09-25T02:27:51.769Z,99.19
2022-09-25T02:28:11.867Z,99.17
2022-09-25T02:28:31.951Z,99.19
2022-09-25T02:28:52.018Z,99.18
2022-09-25T02:29:12.069Z,99.2
2022-09-25T02:29:32.140Z,99.21
2022-09-25T02:29:52.209Z,99.18
2022-09-25T02:30:12.266Z,99.18
2022-09-25T02:30:32.420Z,99.15
2022-09-25T02:30:52.469Z,99.16
2022-09-25T02:31:12.605Z,99.15
2022-09-25T02:31:32.565Z,99.17
2022-09-25T02:31:52.672Z,99.16
2022-09-25T02:32:12.698Z,99.15
2022-09-25T02:32:32.796Z,99.2
2022-09-25T02:32:52.860Z,99.16
2022-09-25T02:33:12.930Z,99.16
2022-09-25T02:33:32.986Z,99.17
2022-09-25T02:33:53.038Z,99.17
2022-09-25T02:34:15.310Z,99.12
2022-09-25T02:34:33.139Z,99.11
2022-09-25T02:34:53.238Z,99.12
2022-09-25T02:35:13.296Z,99.11
2022-09-25T02:35:33.369Z,99.15
2022-09-25T02:35:53.460Z,99.11
2022-09-25T02:36:13.512Z,99.1
2022-09-25T02:36:33.551Z,99.12
2022-09-25T02:36:53.645Z,99.05
2022-09-25T02:37:13.722Z,99.05
2022-09-25T02:37:33.777Z,99.05
2022-09-25T02:37:53.848Z,99.06
2022-09-25T02:38:13.947Z,99.04
2022-09-25T02:38:34.038Z,99.04
2022-09-25T02:38:54.097Z,99.02
2022-09-25T02:39:14.177Z,99.02
2022-09-25T02:39:34.213Z,99.01
2022-09-25T02:39:54.277Z,99.02
2022-09-25T02:40:14.420Z,99
2022-09-25T02:40:34.534Z,99
2022-09-25T02:40:54.551Z,98.96
2022-09-25T02:41:14.576Z,98.95
2022-09-25T02:41:34.643Z,98.95
2022-09-25T02:41:54.741Z,98.96
2022-09-25T02:42:14.815Z,98.95
2022-09-25T02:42:34.866Z,98.92
2022-09-25T02:42:54.935Z,98.91
2022-09-25T02:43:15.002Z,98.89
2022-09-25T02:43:35.075Z,98.85
2022-09-25T02:43:55.125Z,98.82
2022-09-25T02:44:15.174Z,98.82
2022-09-25T02:44:35.233Z,98.75
2022-09-25T02:44:55.337Z,98.7
2022-09-25T02:45:15.377Z,98.65
2022-09-25T02:45:35.533Z,98.61
2022-09-25T02:45:55.622Z,98.59
2022-09-25T02:46:15.606Z,98.52
2022-09-25T02:46:35.628Z,98.49
2022-09-25T02:46:55.693Z,98.45
2022-09-25T02:47:15.765Z,98.39
2022-09-25T02:47:35.810Z,98.31
2022-09-25T02:47:55.881Z,98.24
2022-09-25T02:48:15.938Z,98.19
2022-09-25T02:48:35.983Z,98.17
2022-09-25T02:48:56.053Z,98.11
2022-09-25T02:49:16.125Z,98.07
2022-09-25T02:49:36.175Z,98.03
2022-09-25T02:49:56.234Z,97.99
2022-09-25T02:50:16.280Z,97.91
2022-09-25T02:50:36.378Z,97.89
2022-09-25T02:50:56.469Z,97.85
2022-09-25T02:51:16.547Z,97.79
2022-09-25T02:51:36.602Z,97.78
2022-09-25T02:51:56.664Z,97.72
2022-09-25T02:52:16.698Z,97.7
2022-09-25T02:52:36.785Z,97.67
2022-09-25T02:52:56.821Z,97.67
2022-09-25T02:53:16.911Z,97.64
2022-09-25T02:53:36.965Z,97.57
2022-09-25T02:53:57.027Z,97.51
2022-09-25T02:54:17.121Z,97.49
2022-09-25T02:54:37.145Z,97.41
2022-09-25T02:54:57.192Z,97.35
2022-09-25T02:55:17.218Z,97.3
2022-09-25T02:55:37.287Z,97.25
2022-09-25T02:55:57.332Z,97.22
2022-09-25T02:56:17.406Z,97.18
2022-09-25T02:56:37.519Z,97.11
2022-09-25T02:57:03.000Z,97.09
2022-09-25T02:57:17.661Z,97.05
2022-09-25T02:57:37.733Z,97
2022-09-25T02:57:57.775Z,97
2022-09-25T02:58:17.829Z,96.91
2022-09-25T02:58:37.881Z,96.93
2022-09-25T02:58:57.950Z,96.91
2022-09-25T02:59:18.001Z,96.82
2022-09-25T02:59:38.067Z,96.81
2022-09-25T02:59:58.126Z,96.77
2022-09-25T03:00:18.164Z,96.77
2022-09-25T03:00:38.232Z,96.75
2022-09-25T03:00:58.417Z,96.67
2022-09-25T03:01:18.459Z,96.65
2022-09-25T03:01:38.571Z,96.63
2022-09-25T03:01:58.614Z,96.66
2022-09-25T03:02:18.651Z,96.62
2022-09-25T03:02:38.773Z,96.62
2022-09-25T03:02:58.885Z,96.59
2022-09-25T03:03:18.848Z,96.57
2022-09-25T03:03:38.920Z,96.56
2022-09-25T03:03:58.973Z,96.55
2022-09-25T03:04:19.061Z,96.51
2022-09-25T03:04:39.144Z,96.53
2022-09-25T03:04:59.181Z,96.55
2022-09-25T03:05:19.275Z,96.56
2022-09-25T03:05:39.349Z,96.52
2022-09-25T03:05:59.422Z,96.52
2022-09-25T03:06:19.502Z,96.47
2022-09-25T03:06:39.551Z,96.46
2022-09-25T03:06:59.638Z,96.45
2022-09-25T03:07:19.691Z,96.45
2022-09-25T03:07:39.771Z,96.4
2022-09-25T03:07:59.865Z,96.38
2022-09-25T03:08:19.906Z,96.35
2022-09-25T03:08:40.005Z,96.36
2022-09-25T03:09:00.047Z,96.35
2022-09-25T03:09:20.120Z,96.33
2022-09-25T03:09:40.185Z,96.32
2022-09-25T03:10:00.243Z,96.34
2022-09-25T03:10:20.332Z,96.37
2022-09-25T03:10:40.414Z,96.35
2022-09-25T03:11:00.503Z,96.31
2022-09-25T03:11:20.549Z,96.27
2022-09-25T03:11:40.615Z,96.29
2022-09-25T03:12:00.677Z,96.26
2022-09-25T03:12:20.750Z,96.27
2022-09-25T03:12:40.852Z,96.25
2022-09-25T03:13:00.918Z,96.25
2022-09-25T03:13:20.977Z,96.23
2022-09-25T03:13:41.043Z,96.22
2022-09-25T03:14:01.102Z,96.16
2022-09-25T03:14:21.174Z,96.15
2022-09-25T03:14:41.246Z,96.11
2022-09-25T03:15:01.320Z,96.08
2022-09-25T03:15:21.374Z,96.05
2022-09-25T03:15:41.433Z,95.99
2022-09-25T03:16:01.627Z,95.99
2022-09-25T03:16:21.597Z,96.02
2022-09-25T03:16:41.633Z,96.03
2022-09-25T03:17:01.678Z,95.94
2022-09-25T03:17:21.723Z,96
2022-09-25T03:17:41.791Z,95.99
2022-09-25T03:18:01.862Z,95.96
2022-09-25T03:18:21.901Z,95.94
2022-09-25T03:18:41.976Z,95.92
2022-09-25T03:19:02.034Z,95.95
2022-09-25T03:19:22.127Z,95.92
2022-09-25T03:19:42.138Z,95.88
2022-09-25T03:20:02.222Z,95.87
2022-09-25T03:20:22.282Z,95.87
2022-09-25T03:20:42.375Z,95.86
2022-09-25T03:21:02.489Z,95.87
2022-09-25T03:21:22.537Z,95.87
2022-09-25T03:21:42.595Z,95.86
2022-09-25T03:22:02.663Z,95.86
2022-09-25T03:22:22.716Z,95.9
2022-09-25T03:22:42.791Z,95.94
2022-09-25T03:23:02.851Z,95.92
2022-09-25T03:23:22.934Z,95.86
2022-09-25T03:23:42.999Z,95.83
2022-09-25T03:24:03.230Z,95.83
2022-09-25T03:24:23.120Z,95.76
2022-09-25T03:24:43.199Z,95.7
2022-09-25T03:25:03.274Z,95.73
2022-09-25T03:25:23.344Z,95.71
2022-09-25T03:25:49.065Z,95.76
2022-09-25T03:26:03.507Z,95.73
2022-09-25T03:26:23.559Z,95.78
2022-09-25T03:26:43.618Z,95.8
2022-09-25T03:27:03.708Z,95.74
2022-09-25T03:27:23.781Z,95.75
2022-09-25T03:27:43.856Z,95.77
2022-09-25T03:28:03.930Z,95.81
2022-09-25T03:28:24.015Z,95.84
2022-09-25T03:28:44.077Z,95.89
2022-09-25T03:29:04.129Z,95.92
2022-09-25T03:29:24.210Z,95.87
2022-09-25T03:29:44.244Z,95.86
2022-09-25T03:30:04.297Z,95.88
2022-09-25T03:30:24.394Z,95.82
2022-09-25T03:30:44.580Z,95.78
2022-09-25T03:31:04.624Z,95.77
2022-09-25T03:31:24.758Z,95.69
2022-09-25T03:31:44.723Z,95.63
2022-09-25T03:32:04.793Z,95.54
2022-09-25T03:32:24.842Z,95.48
2022-09-25T03:32:44.897Z,95.44
2022-09-25T03:33:04.949Z,95.41
2022-09-25T03:33:24.995Z,95.32
2022-09-25T03:33:45.059Z,95.28
2022-09-25T03:34:05.142Z,95.22
2022-09-25T03:34:25.205Z,95.2
2022-09-25T03:34:45.280Z,95.2
2022-09-25T03:35:05.398Z,95.21
2022-09-25T03:35:25.475Z,95.13
2022-09-25T03:35:45.594Z,95.12
2022-09-25T03:36:05.668Z,95.03
2022-09-25T03:36:25.739Z,95.01
2022-09-25T03:36:45.809Z,95.02
2022-09-25T03:37:05.870Z,95.01
2022-09-25T03:37:25.924Z,94.95
2022-09-25T03:37:45.989Z,94.87
2022-09-25T03:38:06.071Z,94.8
2022-09-25T03:38:26.147Z,94.78
2022-09-25T03:38:46.247Z,94.74
2022-09-25T03:39:06.337Z,94.74
2022-09-25T03:39:26.400Z,94.68
2022-09-25T03:39:46.453Z,94.66
2022-09-25T03:40:06.510Z,94.66
2022-09-25T03:40:26.632Z,94.67
2022-09-25T03:40:46.751Z,94.72
2022-09-25T03:41:06.731Z,94.76
2022-09-25T03:41:26.790Z,94.79
2022-09-25T03:41:46.873Z,94.77
2022-09-25T03:42:06.990Z,94.84
2022-09-25T03:42:27.066Z,94.88
2022-09-25T03:42:47.118Z,94.86
2022-09-25T03:43:27.238Z,94.88
2022-09-25T03:43:47.266Z,94.85
2022-09-25T03:44:07.311Z,94.84
2022-09-25T03:44:27.375Z,94.84
2022-09-25T03:44:47.440Z,94.89
2022-09-25T03:45:07.519Z,94.95
2022-09-25T03:45:27.590Z,94.87
2022-09-25T03:45:47.743Z,94.95
2022-09-25T03:46:07.812Z,94.93
2022-09-25T03:46:27.959Z,94.9
2022-09-25T03:46:47.864Z,94.89
2022-09-25T03:47:07.922Z,94.89
2022-09-25T03:47:28.023Z,94.91
2022-09-25T03:47:48.123Z,94.95
2022-09-25T03:48:08.177Z,94.92
2022-09-25T03:48:28.249Z,94.95
2022-09-25T03:48:48.344Z,94.92
2022-09-25T03:49:08.398Z,94.84
2022-09-25T03:49:28.451Z,94.84
2022-09-25T03:49:48.522Z,94.88
2022-09-25T03:50:08.586Z,94.86
2022-09-25T03:50:28.635Z,94.83
2022-09-25T03:50:48.699Z,94.73
2022-09-25T03:51:08.784Z,94.61
2022-09-25T03:51:28.838Z,94.59
2022-09-25T03:51:48.915Z,94.61
2022-09-25T03:52:08.974Z,94.57
2022-09-25T03:52:29.060Z,94.62
2022-09-25T03:52:49.113Z,94.61
2022-09-25T03:53:09.178Z,94.47
2022-09-25T03:53:29.244Z,94.31
2022-09-25T03:53:49.330Z,94.23
2022-09-25T03:54:09.486Z,94.2
2022-09-25T03:54:29.403Z,94.23
2022-09-25T03:54:49.502Z,94.35
2022-09-25T03:55:09.577Z,94.45
2022-09-25T03:55:29.651Z,94.46
2022-09-25T03:55:49.707Z,94.43
2022-09-25T03:56:09.765Z,94.41
2022-09-25T03:56:29.967Z,94.34
2022-09-25T03:56:49.883Z,94.39
2022-09-25T03:57:09.970Z,94.42
2022-09-25T03:57:30.048Z,94.37
2022-09-25T03:57:50.102Z,94.34
2022-09-25T03:58:10.146Z,94.44
2022-09-25T03:58:30.214Z,94.4
2022-09-25T03:58:50.300Z,94.33
2022-09-25T03:59:10.356Z,94.4
2022-09-25T03:59:30.390Z,94.45
2022-09-25T03:59:50.473Z,94.51
2022-09-25T04:00:10.522Z,94.4
2022-09-25T04:00:30.591Z,94.44
2022-09-25T04:00:50.645Z,94.36
2022-09-25T04:01:10.806Z,94.39
2022-09-25T04:01:30.815Z,94.36
2022-09-25T04:01:50.910Z,94.35
2022-09-25T04:02:10.972Z,94.34
2022-09-25T04:02:30.978Z,94.31
2022-09-25T04:02:51.085Z,94.25
2022-09-25T04:03:11.073Z,94.2
2022-09-25T04:03:31.148Z,94.12
2022-09-25T04:03:51.178Z,94.11
2022-09-25T04:04:11.349Z,94.07
2022-09-25T04:04:31.370Z,94.06
2022-09-25T04:04:51.447Z,94
2022-09-25T04:05:11.557Z,93.91
2022-09-25T04:05:31.594Z,93.78
2022-09-25T04:05:51.669Z,93.78
2022-09-25T04:06:11.747Z,93.82
2022-09-25T04:06:31.783Z,93.88
2022-09-25T04:06:51.859Z,93.8
2022-09-25T04:07:11.931Z,93.8
2022-09-25T04:07:31.993Z,93.82
2022-09-25T04:07:52.033Z,93.85
2022-09-25T04:08:12.098Z,93.91
2022-09-25T04:08:32.175Z,93.83
2022-09-25T04:08:52.219Z,93.77
2022-09-25T04:09:12.264Z,93.77
2022-09-25T04:09:32.321Z,93.74
2022-09-25T04:09:52.389Z,93.77
2022-09-25T04:10:12.446Z,93.73
2022-09-25T04:10:32.488Z,93.74
2022-09-25T04:10:52.543Z,93.76
2022-09-25T04:11:12.606Z,93.81
2022-09-25T04:11:32.684Z,93.8
2022-09-25T04:11:52.740Z,93.8
2022-09-25T04:12:12.812Z,93.78
2022-09-25T04:12:32.847Z,93.85
2022-09-25T04:12:52.933Z,93.79
2022-09-25T04:13:13.020Z,93.81
2022-09-25T04:13:33.070Z,93.83
2022-09-25T04:13:53.185Z,93.85
2022-09-25T04:14:13.273Z,93.9
2022-09-25T04:14:33.248Z,93.84
2022-09-25T04:14:53.332Z,93.83
2022-09-25T04:15:13.412Z,93.81
2022-09-25T04:15:33.515Z,93.8
2022-09-25T04:15:53.634Z,93.82
2022-09-25T04:16:13.720Z,93.87
2022-09-25T04:16:33.732Z,93.88
2022-09-25T04:16:53.731Z,93.86
2022-09-25T04:17:13.783Z,93.88
2022-09-25T04:17:33.843Z,93.83
2022-09-25T04:17:53.947Z,93.77
2022-09-25T04:18:14.013Z,93.77
2022-09-25T04:18:34.082Z,93.76
2022-09-25T04:18:54.136Z,93.75
2022-09-25T04:19:14.204Z,93.71
2022-09-25T04:19:34.249Z,93.76
2022-09-25T04:19:54.333Z,93.71
2022-09-25T04:20:14.382Z,93.7
2022-09-25T04:20:34.447Z,93.66
2022-09-25T04:20:54.510Z,93.66
2022-09-25T04:21:14.593Z,93.66
2022-09-25T04:21:34.634Z,93.67